Time;durP1;ratioP1;P1;durP2;ratioP2;P2;SDS_P1;SDS_P2;PMS_P1;PMS_P2;Temp;Humidity;BMP_temperature;BMP_pressure;BME280_temperature;BME280_humidity;BME280_pressure;Samples;Min_cycle;Max_cycle;Signal;HPM_P1;HPM_P2
2021/01/06 00:00:43;;;;;;;12.97;7.93;;;5.90;99.90;;;;;;5074155;28;20208;-69
2021/01/06 00:03:12;;;;;;;10.87;7.90;;;5.90;99.90;;;;;;5074166;28;20420;-68
2021/01/06 00:08:59;;;;;;;10.00;7.80;;;5.90;99.90;;;;;;5074148;28;20407;-68
2021/01/06 00:11:37;;;;;;;11.70;8.87;;;5.90;99.90;;;;;;5074011;28;20421;-68
2021/01/06 00:14:06;;;;;;;12.83;8.33;;;5.90;99.90;;;;;;5073983;28;20738;-69
2021/01/06 00:16:32;;;;;;;13.37;9.33;;;5.90;99.90;;;;;;5074414;28;20488;-67
2021/01/06 00:18:57;;;;;;;10.40;7.67;;;5.90;99.90;;;;;;5074188;28;20831;-67
2021/01/06 00:21:23;;;;;;;10.73;8.47;;;5.90;99.90;;;;;;5074037;28;20588;-68
2021/01/06 00:23:48;;;;;;;9.63;8.30;;;5.90;99.90;;;;;;5073937;28;20179;-68
2021/01/06 00:26:14;;;;;;;9.50;7.93;;;5.90;99.90;;;;;;5073887;28;20182;-69
2021/01/06 00:28:40;;;;;;;9.97;7.17;;;6.00;99.90;;;;;;5074031;28;20196;-69
2021/01/06 00:31:06;;;;;;;11.37;7.93;;;6.00;99.90;;;;;;5073655;28;20468;-68
2021/01/06 00:33:35;;;;;;;13.17;8.37;;;6.00;99.90;;;;;;5073763;28;20258;-69
2021/01/06 00:36:05;;;;;;;11.40;9.03;;;6.00;99.90;;;;;;5073702;28;20437;-68
2021/01/06 00:38:31;;;;;;;8.70;7.80;;;6.00;99.90;;;;;;5073958;28;20560;-68
2021/01/06 00:40:57;;;;;;;13.85;10.00;;;6.00;99.90;;;;;;5073072;28;20442;-68
2021/01/06 00:43:23;;;;;;;11.17;9.13;;;6.00;99.90;;;;;;5073858;28;20626;-68
2021/01/06 00:49:11;;;;;;;13.80;8.17;;;6.10;99.90;;;;;;5073519;28;20426;-68
2021/01/06 00:54:58;;;;;;;11.53;8.20;;;6.00;99.90;;;;;;5073406;28;20641;-68
2021/01/06 00:57:24;;;;;;;8.80;7.03;;;6.00;99.90;;;;;;5073361;28;20451;-69
2021/01/06 00:59:49;;;;;;;11.63;8.50;;;6.10;99.90;;;;;;5073633;28;20206;-71
2021/01/06 01:02:15;;;;;;;14.73;8.43;;;6.00;99.90;;;;;;5073698;28;20528;-70
2021/01/06 01:04:40;;;;;;;9.33;6.47;;;6.10;99.90;;;;;;5073716;28;20197;-70
2021/01/06 01:07:06;;;;;;;9.87;7.40;;;6.00;99.90;;;;;;5073741;28;20185;-70
2021/01/06 01:09:32;;;;;;;8.80;6.87;;;5.90;99.90;;;;;;5073710;28;20171;-70
2021/01/06 01:11:57;;;;;;;8.77;7.70;;;5.90;99.90;;;;;;5073420;28;20177;-70
2021/01/06 01:14:23;;;;;;;11.83;8.10;;;5.90;99.90;;;;;;5073692;28;20202;-69
2021/01/06 01:16:51;;;;;;;10.10;7.73;;;5.90;99.90;;;;;;5073684;28;20174;-68
2021/01/06 01:19:17;;;;;;;12.20;8.50;;;5.90;99.90;;;;;;5073615;28;20182;-68
2021/01/06 01:21:43;;;;;;;11.50;7.50;;;5.80;99.90;;;;;;5073563;28;20471;-68
2021/01/06 01:24:08;;;;;;;13.80;7.93;;;5.80;99.90;;;;;;5073634;28;20435;-68
2021/01/06 01:26:34;;;;;;;10.13;7.17;;;5.80;99.90;;;;;;5073536;28;20210;-69
2021/01/06 01:28:59;;;;;;;12.77;7.43;;;5.80;99.90;;;;;;5073575;28;20174;-68
2021/01/06 01:31:36;;;;;;;9.07;7.00;;;5.90;99.90;;;;;;5073178;28;20225;-67
2021/01/06 01:34:02;;;;;;;9.83;6.20;;;5.90;99.90;;;;;;5073193;28;20706;-68
2021/01/06 01:36:28;;;;;;;8.40;6.60;;;5.90;99.90;;;;;;5073475;28;20816;-67
2021/01/06 01:38:54;;;;;;;7.80;6.63;;;5.90;99.90;;;;;;5073104;28;20427;-68
2021/01/06 01:41:23;;;;;;;8.57;5.93;;;5.90;99.90;;;;;;5073355;28;20562;-68
2021/01/06 01:43:49;;;;;;;11.40;6.53;;;5.90;99.90;;;;;;5073419;28;20177;-69
2021/01/06 01:46:32;;;;;;;8.30;5.83;;;6.00;99.90;;;;;;5073387;28;20428;-70
2021/01/06 01:49:00;;;;;;;8.00;5.97;;;5.90;99.90;;;;;;5073344;28;20177;-68
2021/01/06 01:51:35;;;;;;;8.23;6.20;;;5.90;99.90;;;;;;5073322;28;20436;-68
2021/01/06 01:54:08;;;;;;;7.70;6.20;;;5.90;99.90;;;;;;5073351;28;20821;-68
2021/01/06 01:56:56;;;;;;;7.53;6.67;;;5.90;99.90;;;;;;5073252;28;20413;-68
2021/01/06 01:59:39;;;;;;;7.53;5.93;;;5.90;99.90;;;;;;5076006;28;20487;-67
2021/01/06 02:02:12;;;;;;;7.90;5.70;;;5.90;99.90;;;;;;5075525;28;20786;-68
2021/01/06 02:04:46;;;;;;;9.80;5.63;;;5.90;99.90;;;;;;5076961;28;20831;-67
2021/01/06 02:07:22;;;;;;;7.13;5.67;;;6.00;99.90;;;;;;5076922;28;20974;-68
2021/01/06 02:10:09;;;;;;;6.87;5.63;;;6.00;99.90;;;;;;5076624;28;20428;-69
2021/01/06 06:31:29;;;;;;;11.17;9.20;;;5.60;99.90;;;;;;5650308;22;20502;-69
2021/01/06 06:34:01;;;;;;;13.50;9.10;;;5.60;99.90;;;;;;5075944;28;20478;-69
2021/01/06 06:36:30;;;;;;;14.60;10.70;;;5.40;99.90;;;;;;5075887;28;20435;-68
2021/01/06 06:38:58;;;;;;;22.33;9.30;;;5.50;99.90;;;;;;5075865;28;20446;-69
2021/01/06 06:41:35;;;;;;;15.43;11.07;;;5.60;99.90;;;;;;5075604;28;20472;-68
2021/01/06 06:44:22;;;;;;;14.10;9.60;;;5.60;99.90;;;;;;5075309;28;20940;-69
2021/01/06 06:47:13;;;;;;;12.40;9.10;;;5.50;99.90;;;;;;5075622;28;20525;-69
2021/01/06 06:50:08;;;;;;;11.90;8.33;;;5.50;99.90;;;;;;5075508;28;20431;-69
2021/01/06 06:52:39;;;;;;;10.80;8.23;;;5.50;99.90;;;;;;5075708;28;20804;-69
2021/01/06 06:55:25;;;;;;;13.10;9.30;;;5.60;99.90;;;;;;5076593;22;20574;-65
2021/01/06 06:58:22;;;;;;;13.80;9.90;;;5.60;99.90;;;;;;5055304;28;20764;-68
2021/01/06 07:00:49;;;;;;;13.70;10.17;;;5.50;99.90;;;;;;5055218;28;20482;-66
2021/01/06 07:03:21;;;;;;;10.67;8.70;;;5.50;99.90;;;;;;5055389;28;20798;-66
2021/01/06 07:05:55;;;;;;;13.93;9.97;;;5.50;99.90;;;;;;5055186;28;20441;-69
2021/01/06 07:08:32;;;;;;;15.27;9.90;;;5.50;99.90;;;;;;5055255;28;20941;-67
2021/01/06 07:11:14;;;;;;;13.33;10.33;;;5.50;99.90;;;;;;5054222;28;20424;-65
2021/01/06 07:13:40;;;;;;;13.33;9.37;;;5.50;99.90;;;;;;5055193;28;20429;-66
2021/01/06 07:16:15;;;;;;;15.10;10.10;;;5.50;99.90;;;;;;5055162;28;20935;-66
2021/01/06 07:18:52;;;;;;;14.63;10.20;;;5.60;99.90;;;;;;5055092;28;20642;-72
2021/01/06 07:21:33;;;;;;;13.30;9.50;;;5.60;99.90;;;;;;5055088;28;20472;-66
2021/01/06 07:23:59;;;;;;;13.57;10.30;;;5.60;99.90;;;;;;5054902;28;20409;-66
2021/01/06 07:26:31;;;;;;;14.87;10.40;;;5.50;99.90;;;;;;5054943;28;20455;-67
2021/01/06 07:29:03;;;;;;;15.90;12.17;;;5.50;99.90;;;;;;5054931;28;20167;-67
2021/01/06 07:31:36;;;;;;;17.10;12.00;;;5.50;99.90;;;;;;5054844;28;20445;-64
2021/01/06 07:34:05;;;;;;;17.70;11.37;;;5.50;99.90;;;;;;5054876;28;20432;-65
2021/01/06 07:36:34;;;;;;;18.40;13.53;;;5.60;99.90;;;;;;5054642;28;20936;-65
2021/01/06 07:39:02;;;;;;;15.57;11.77;;;5.50;99.90;;;;;;5054686;28;20414;-65
2021/01/06 07:41:28;;;;;;;16.77;11.83;;;5.60;99.90;;;;;;5054437;28;20579;-66
2021/01/06 07:44:07;;;;;;;16.40;11.33;;;5.60;99.90;;;;;;5054600;28;20482;-65
2021/01/06 07:47:06;;;;;;;15.73;10.50;;;5.60;99.90;;;;;;5054458;28;20440;-64
2021/01/06 07:49:56;;;;;;;13.90;11.40;;;5.70;99.90;;;;;;5054352;28;20425;-64
2021/01/06 07:52:45;;;;;;;16.50;11.70;;;5.70;99.90;;;;;;5054451;28;20428;-65
2021/01/06 07:55:28;;;;;;;15.93;10.60;;;5.70;99.90;;;;;;5054058;28;20543;-65
2021/01/06 07:58:01;;;;;;;16.20;11.70;;;5.80;99.90;;;;;;5054467;28;20468;-65
2021/01/06 08:00:33;;;;;;;19.53;11.67;;;5.80;99.90;;;;;;5054065;28;20508;-65
2021/01/06 08:03:20;;;;;;;14.87;11.03;;;5.80;99.90;;;;;;5054392;28;20441;-66
2021/01/06 08:05:58;;;;;;;17.13;12.03;;;5.80;99.90;;;;;;5054071;28;20780;-65
2021/01/06 08:08:25;;;;;;;16.63;11.70;;;5.80;99.90;;;;;;5054075;28;20428;-64
2021/01/06 08:10:51;;;;;;;13.90;10.70;;;5.80;99.90;;;;;;5053933;28;20420;-65
2021/01/06 08:13:28;;;;;;;17.00;11.13;;;5.80;99.90;;;;;;5053203;28;20416;-65
2021/01/06 08:16:10;;;;;;;14.30;11.40;;;5.80;99.90;;;;;;5060263;28;20433;-65
2021/01/06 08:18:48;;;;;;;18.00;12.13;;;5.80;99.90;;;;;;5060902;28;20416;-65
2021/01/06 08:21:30;;;;;;;15.10;11.47;;;5.80;99.90;;;;;;5060469;28;20980;-65
2021/01/06 08:24:15;;;;;;;25.60;12.50;;;5.80;99.90;;;;;;5054823;28;20508;-67
2021/01/06 08:26:51;;;;;;;16.30;10.30;;;5.80;99.90;;;;;;5063951;28;20474;-64
2021/01/06 08:29:24;;;;;;;16.27;11.20;;;5.80;99.90;;;;;;5073611;28;20420;-65
2021/01/06 08:31:58;;;;;;;14.73;10.73;;;5.90;99.90;;;;;;5070572;28;20449;-66
2021/01/06 08:34:28;;;;;;;14.47;10.50;;;5.80;99.90;;;;;;5070075;28;20764;-64
2021/01/06 08:37:00;;;;;;;18.53;11.27;;;5.80;99.90;;;;;;5073565;28;20416;-65
2021/01/06 08:39:28;;;;;;;14.80;11.10;;;5.80;99.90;;;;;;5072437;28;20503;-65
2021/01/06 08:41:57;;;;;;;17.10;11.30;;;5.80;99.90;;;;;;5073575;28;20437;-66
2021/01/06 08:44:49;;;;;;;14.73;10.30;;;5.90;99.90;;;;;;5073509;28;20425;-66
2021/01/06 08:47:36;;;;;;;15.67;10.33;;;5.90;99.90;;;;;;5073423;28;20447;-65
2021/01/06 08:50:12;;;;;;;16.27;11.30;;;5.90;99.90;;;;;;5073498;28;20428;-65
2021/01/06 08:52:39;;;;;;;16.17;10.80;;;5.80;99.90;;;;;;5073274;28;20423;-65
2021/01/06 08:55:40;;;;;;;15.53;10.50;;;5.80;99.90;;;;;;5073016;28;20471;-66
2021/01/06 08:58:08;;;;;;;13.57;10.50;;;5.80;99.90;;;;;;5067255;28;20495;-65
2021/01/06 09:00:40;;;;;;;27.10;12.43;;;5.80;99.90;;;;;;5061224;28;20476;-66
2021/01/06 09:03:10;;;;;;;16.10;10.83;;;5.80;99.90;;;;;;5041268;28;20567;-64
2021/01/06 09:05:58;;;;;;;14.40;10.87;;;5.80;99.90;;;;;;5043235;28;20434;-64
2021/01/06 09:08:32;;;;;;;20.07;12.10;;;5.80;99.90;;;;;;5043236;28;20509;-66
2021/01/06 09:11:08;;;;;;;21.93;13.07;;;5.80;99.90;;;;;;5043512;28;20423;-65
2021/01/06 09:14:07;;;;;;;17.70;11.27;;;5.80;99.90;;;;;;5047750;28;20524;-65
2021/01/06 09:16:49;;;;;;;23.83;12.93;;;5.80;99.90;;;;;;5042646;28;20434;-66
2021/01/06 09:19:41;;;;;;;23.80;13.30;;;5.80;99.90;;;;;;5042951;28;20432;-64
2021/01/06 09:22:10;;;;;;;16.00;11.97;;;5.80;99.90;;;;;;5040898;28;20513;-65
2021/01/06 09:24:39;;;;;;;16.27;12.80;;;5.80;99.90;;;;;;5058999;28;20462;-64
2021/01/06 09:27:07;;;;;;;16.00;12.37;;;5.80;99.90;;;;;;5062102;28;20439;-65
2021/01/06 09:29:36;;;;;;;18.17;12.10;;;5.80;99.90;;;;;;5063373;28;20420;-64
2021/01/06 09:32:08;;;;;;;17.90;12.50;;;5.80;99.90;;;;;;5062530;28;20440;-65
2021/01/06 09:34:40;;;;;;;15.40;12.70;;;5.70;99.90;;;;;;5047227;28;20440;-65
2021/01/06 09:37:07;;;;;;;16.30;11.50;;;5.80;99.90;;;;;;5061304;28;20450;-65
2021/01/06 09:39:35;;;;;;;15.30;11.00;;;5.80;99.90;;;;;;5062612;28;20429;-65
2021/01/06 09:42:01;;;;;;;16.17;12.50;;;5.80;99.90;;;;;;5061347;28;20850;-65
2021/01/06 09:44:32;;;;;;;16.10;11.57;;;5.70;99.90;;;;;;5062636;28;20419;-65
2021/01/06 09:47:04;;;;;;;15.97;11.10;;;5.70;99.90;;;;;;5063181;28;20439;-65
2021/01/06 09:49:43;;;;;;;15.40;11.40;;;5.70;99.90;;;;;;5062258;28;20483;-65
2021/01/06 09:52:36;;;;;;;14.77;9.47;;;5.70;99.90;;;;;;5053499;28;20476;-63
2021/01/06 09:55:04;;;;;;;14.93;10.90;;;5.70;99.90;;;;;;5051995;28;20889;-65
2021/01/06 09:57:31;;;;;;;15.00;10.93;;;5.70;99.90;;;;;;5053103;28;20436;-66
2021/01/06 10:00:00;;;;;;;12.80;9.40;;;5.70;99.90;;;;;;5052701;28;20549;-65
2021/01/06 10:02:31;;;;;;;18.00;10.03;;;5.70;99.90;;;;;;5052829;28;20523;-65
2021/01/06 10:05:18;;;;;;;12.10;10.37;;;5.70;99.90;;;;;;5053168;28;20432;-64
2021/01/06 10:07:51;;;;;;;12.57;8.53;;;5.70;99.90;;;;;;5038717;28;20436;-64
2021/01/06 10:10:24;;;;;;;11.33;8.70;;;5.70;99.90;;;;;;5053086;28;20479;-65
2021/01/06 10:12:58;;;;;;;13.00;9.37;;;5.70;99.90;;;;;;5053037;28;20508;-66
2021/01/06 10:15:47;;;;;;;13.93;9.17;;;5.70;99.90;;;;;;5052932;28;20465;-66
2021/01/06 10:18:16;;;;;;;11.40;7.83;;;5.70;99.90;;;;;;5052942;28;20402;-65
2021/01/06 10:20:59;;;;;;;10.63;8.87;;;5.70;99.90;;;;;;5055706;28;20986;-65
2021/01/06 10:23:58;;;;;;;12.60;9.33;;;5.80;99.90;;;;;;5056478;28;20837;-65
2021/01/06 10:26:26;;;;;;;12.27;8.67;;;5.70;99.90;;;;;;5029824;28;20451;-65
2021/01/06 10:28:52;;;;;;;10.63;8.47;;;5.80;99.90;;;;;;5056395;28;20409;-65
2021/01/06 10:31:22;;;;;;;14.47;9.27;;;5.80;99.90;;;;;;5056131;28;20504;-65
2021/01/06 10:37:21;;;;;;;17.47;10.53;;;5.80;99.90;;;;;;5056131;28;20825;-66
2021/01/06 10:39:56;;;;;;;15.20;10.47;;;5.80;99.90;;;;;;5055865;28;20894;-66
2021/01/06 10:42:21;;;;;;;14.27;10.07;;;5.80;99.90;;;;;;5056140;28;20432;-66
2021/01/06 10:48:40;;;;;;;15.40;10.63;;;5.80;99.90;;;;;;5055874;28;20264;-65
2021/01/06 10:51:06;;;;;;;15.73;12.20;;;5.80;99.90;;;;;;5055808;28;20435;-66
2021/01/06 10:53:37;;;;;;;18.87;12.40;;;5.80;99.90;;;;;;5055540;28;20451;-65
2021/01/06 10:56:10;;;;;;;19.70;12.37;;;5.80;99.90;;;;;;5055936;28;20172;-66
2021/01/06 10:58:41;;;;;;;15.50;12.80;;;5.80;99.90;;;;;;5055999;28;20435;-66
2021/01/06 11:01:09;;;;;;;16.77;11.63;;;5.80;99.90;;;;;;5056405;28;20473;-64
2021/01/06 11:03:57;;;;;;;17.97;11.57;;;5.80;99.90;;;;;;5055816;28;20424;-63
2021/01/06 11:06:26;;;;;;;18.23;11.70;;;5.80;99.90;;;;;;5055706;28;20429;-64
2021/01/06 11:09:03;;;;;;;16.33;11.70;;;5.80;99.90;;;;;;5055770;28;20435;-63
2021/01/06 11:12:03;;;;;;;19.65;11.80;;;5.80;99.90;;;;;;5054997;28;20501;-70
2021/01/06 11:18:12;;;;;;;17.07;11.93;;;5.90;99.90;;;;;;5055280;28;20181;-67
2021/01/06 11:24:00;;;;;;;16.30;11.70;;;6.10;99.90;;;;;;5055182;28;20501;-66
2021/01/06 11:26:31;;;;;;;17.17;11.40;;;6.10;99.90;;;;;;5055400;28;20423;-67
2021/01/06 11:32:33;;;;;;;16.03;11.23;;;6.10;99.90;;;;;;5055277;28;20408;-66
2021/01/06 11:38:44;;;;;;;19.30;12.30;;;6.00;99.90;;;;;;5054623;28;20400;-67
2021/01/06 11:41:17;;;;;;;16.10;10.93;;;6.00;99.90;;;;;;5054653;28;20484;-66
2021/01/06 11:44:20;;;;;;;19.00;10.80;;;6.00;99.90;;;;;;5053216;28;20429;-66
2021/01/06 11:46:51;;;;;;;17.83;11.30;;;5.90;99.90;;;;;;5041464;28;20439;-66
2021/01/06 11:49:43;;;;;;;19.17;10.77;;;6.00;99.90;;;;;;5054589;28;20813;-65
2021/01/06 11:52:30;;;;;;;17.13;10.83;;;6.00;99.90;;;;;;5054762;28;20438;-67
2021/01/06 11:55:26;;;;;;;14.03;10.10;;;6.00;99.90;;;;;;5054076;28;20464;-66
2021/01/06 12:01:36;;;;;;;16.87;10.70;;;6.00;99.90;;;;;;5054333;28;20817;-67
2021/01/06 12:04:12;;;;;;;12.10;10.03;;;5.90;99.90;;;;;;5054225;28;20448;-67
2021/01/06 12:07:13;;;;;;;17.03;13.10;;;5.90;99.90;;;;;;5054431;28;20462;-67
2021/01/06 12:10:03;;;;;;;17.33;10.60;;;5.90;99.90;;;;;;5043325;28;20437;-67
2021/01/06 12:12:45;;;;;;;14.30;11.07;;;5.90;99.90;;;;;;5054015;28;20448;-68
2021/01/06 12:15:23;;;;;;;16.80;9.57;;;5.90;99.90;;;;;;5054452;28;20513;-67
2021/01/06 12:17:53;;;;;;;21.43;10.90;;;5.90;99.90;;;;;;5053973;28;20932;-67
2021/01/06 12:20:34;;;;;;;15.60;10.80;;;5.90;99.90;;;;;;5054198;28;20457;-71
2021/01/06 12:23:15;;;;;;;19.13;10.57;;;5.90;99.90;;;;;;5054156;28;20406;-70
2021/01/06 12:25:52;;;;;;;16.03;10.90;;;5.90;99.90;;;;;;5052386;28;20421;-70
2021/01/06 12:31:58;;;;;;;12.40;9.17;;;5.80;99.90;;;;;;5053770;28;20858;-71
2021/01/06 12:34:34;;;;;;;23.97;10.10;;;5.80;99.90;;;;;;5054136;28;20417;-71
2021/01/06 12:37:12;;;;;;;17.07;10.17;;;5.80;99.90;;;;;;5054095;28;20525;-71
2021/01/06 12:39:39;;;;;;;13.20;9.90;;;5.80;99.90;;;;;;5053478;28;20443;-67
2021/01/06 12:42:14;;;;;;;22.07;11.43;;;5.80;99.90;;;;;;5052885;28;20476;-67
2021/01/06 12:44:43;;;;;;;14.97;10.70;;;5.80;99.90;;;;;;5053784;28;20420;-70
2021/01/06 12:50:53;;;;;;;19.40;10.80;;;5.80;99.90;;;;;;5053158;28;20412;-67
2021/01/06 12:53:31;;;;;;;17.80;10.80;;;5.80;99.90;;;;;;5053155;28;20475;-67
2021/01/06 12:59:23;;;;;;;14.83;8.93;;;5.90;99.90;;;;;;5053008;28;20497;-77
2021/01/06 13:05:38;;;;;;;16.13;10.80;;;6.00;99.90;;;;;;5053120;28;20443;-79
2021/01/06 13:08:24;;;;;;;19.00;10.93;;;6.00;99.90;;;;;;5053847;28;20440;-80
2021/01/06 13:10:51;;;;;;;13.07;9.90;;;6.10;99.90;;;;;;5053708;28;20451;-78
2021/01/06 13:13:25;;;;;;;14.90;9.47;;;6.10;99.90;;;;;;5054321;28;20889;-76
2021/01/06 13:16:02;;;;;;;34.87;11.50;;;6.10;99.90;;;;;;5053837;28;20827;-68
2021/01/06 13:22:13;;;;;;;18.47;9.60;;;6.30;99.90;;;;;;5052871;28;20443;-74
2021/01/06 13:24:42;;;;;;;13.20;9.37;;;6.20;99.90;;;;;;5052650;28;20452;-73
2021/01/06 13:27:09;;;;;;;16.57;9.30;;;6.20;99.90;;;;;;5052734;28;20967;-74
2021/01/06 13:29:47;;;;;;;14.43;9.50;;;6.20;99.90;;;;;;5053252;28;20422;-78
2021/01/06 13:32:14;;;;;;;14.00;10.00;;;6.10;99.90;;;;;;5053576;28;20446;-79
2021/01/06 13:38:26;;;;;;;12.20;8.80;;;6.10;99.90;;;;;;5052735;28;20428;-73
2021/01/06 13:40:54;;;;;;;13.30;9.47;;;6.10;99.90;;;;;;5053067;28;20831;-74
2021/01/06 13:43:49;;;;;;;13.47;10.47;;;6.10;99.90;;;;;;5052902;28;20927;-74
2021/01/06 13:46:36;;;;;;;18.03;10.40;;;6.10;99.90;;;;;;5051446;28;20475;-72
2021/01/06 13:49:28;;;;;;;12.70;8.87;;;6.10;99.90;;;;;;5052958;28;20758;-72
2021/01/06 13:52:02;;;;;;;12.73;8.30;;;6.10;99.90;;;;;;5052569;28;20426;-78
2021/01/06 13:54:53;;;;;;;19.47;9.63;;;6.10;99.90;;;;;;5055737;28;21045;-79
2021/01/06 13:57:24;;;;;;;13.17;8.60;;;6.20;99.90;;;;;;5055374;28;20433;-80
2021/01/06 14:03:33;;;;;;;13.03;8.67;;;6.10;99.90;;;;;;5056895;28;20942;-79
2021/01/06 14:09:51;;;;;;;11.73;8.87;;;6.10;99.90;;;;;;5056765;28;20435;-80
2021/01/06 14:16:09;;;;;;;12.20;8.90;;;6.10;99.90;;;;;;5056715;28;20459;-79
2021/01/06 14:22:02;;;;;;;12.07;9.17;;;6.10;99.90;;;;;;5056171;28;20792;-79
2021/01/06 14:24:28;;;;;;;15.60;9.27;;;6.10;99.90;;;;;;5055904;28;20514;-79
2021/01/06 14:27:27;;;;;;;15.23;8.80;;;6.10;99.90;;;;;;5056375;28;20439;-82
2021/01/06 14:30:23;;;;;;;13.70;9.37;;;6.10;99.90;;;;;;5056326;28;20442;-77
2021/01/06 14:36:22;;;;;;;12.73;8.33;;;6.10;99.90;;;;;;5056273;28;20757;-82
2021/01/06 14:39:06;;;;;;;15.10;8.50;;;6.10;99.90;;;;;;5056197;28;20452;-83
2021/01/06 14:41:42;;;;;;;14.73;10.27;;;6.10;99.90;;;;;;5056328;28;20461;-83
2021/01/06 14:44:23;;;;;;;12.60;8.80;;;6.10;99.90;;;;;;5055205;28;20444;-84
2021/01/06 14:47:00;;;;;;;13.30;9.23;;;6.10;99.90;;;;;;5056166;28;20410;-82
2021/01/06 14:49:30;;;;;;;9.30;7.50;;;6.10;99.90;;;;;;5055694;28;20500;-83
2021/01/06 14:52:03;;;;;;;11.73;9.27;;;6.10;99.90;;;;;;5055995;28;20775;-81
2021/01/06 14:54:38;;;;;;;12.60;8.47;;;6.00;99.90;;;;;;5061287;28;20998;-82
2021/01/06 14:57:41;;;;;;;13.27;9.23;;;6.00;99.90;;;;;;5057622;28;20415;-79
2021/01/06 15:00:13;;;;;;;12.50;8.67;;;6.00;99.90;;;;;;5055776;28;20498;-82
2021/01/06 15:02:42;;;;;;;10.50;7.23;;;6.00;99.90;;;;;;5055334;28;20563;-82
2021/01/06 15:05:35;;;;;;;9.30;6.60;;;6.00;99.90;;;;;;5054808;28;20474;-78
2021/01/06 15:08:19;;;;;;;9.30;6.80;;;6.00;99.90;;;;;;5055629;28;20451;-81
2021/01/06 15:11:05;;;;;;;8.47;6.97;;;6.00;99.90;;;;;;5055659;28;20477;-80
2021/01/06 15:13:32;;;;;;;8.73;6.47;;;6.00;99.90;;;;;;5014621;28;20807;-79
2021/01/06 15:16:17;;;;;;;8.17;5.73;;;5.90;99.90;;;;;;5055307;28;20511;-78
2021/01/06 15:18:52;;;;;;;6.73;6.03;;;6.00;99.90;;;;;;5055348;28;20409;-75
2021/01/06 15:21:31;;;;;;;8.83;6.50;;;5.90;99.90;;;;;;5055872;28;20465;-85
2021/01/06 15:24:00;;;;;;;8.80;7.00;;;5.90;99.90;;;;;;5055119;28;20405;-71
2021/01/06 15:26:25;;;;;;;10.00;7.40;;;5.90;99.90;;;;;;5054605;28;20419;-77
2021/01/06 15:32:35;;;;;;;10.70;8.10;;;5.90;99.90;;;;;;5055326;28;20554;-81
2021/01/06 15:35:12;;;;;;;12.87;8.27;;;5.90;99.90;;;;;;5055322;28;20425;-84
2021/01/06 15:37:39;;;;;;;12.00;8.93;;;5.90;99.90;;;;;;5055473;28;20891;-81
2021/01/06 15:40:08;;;;;;;17.33;10.32;;;5.90;99.90;;;;;;5054004;28;20448;-82
2021/01/06 15:46:16;;;;;;;12.03;8.20;;;6.00;99.90;;;;;;5054574;28;20397;-78
2021/01/06 15:48:42;;;;;;;9.13;7.53;;;5.90;99.90;;;;;;5054403;28;20908;-79
2021/01/06 15:54:30;;;;;;;10.53;7.67;;;5.80;99.90;;;;;;5051598;28;20551;-75
2021/01/06 15:57:03;;;;;;;14.07;8.97;;;5.70;99.90;;;;;;5054113;28;20799;-78
2021/01/06 15:59:31;;;;;;;13.70;9.07;;;5.70;99.90;;;;;;5054475;28;20414;-83
2021/01/06 16:05:25;;;;;;;13.53;9.00;;;5.60;99.90;;;;;;5054194;28;20482;-80
2021/01/06 16:07:51;;;;;;;13.47;9.10;;;5.60;99.90;;;;;;5053962;28;20436;-80
2021/01/06 16:10:33;;;;;;;12.17;9.33;;;5.60;99.90;;;;;;5054102;28;20456;-80
2021/01/06 16:16:34;;;;;;;12.80;9.20;;;5.60;99.90;;;;;;5053084;28;20458;-78
2021/01/06 16:19:09;;;;;;;12.40;10.37;;;5.50;99.90;;;;;;5054343;28;20436;-81
2021/01/06 16:21:43;;;;;;;19.77;9.77;;;5.50;99.90;;;;;;5054029;28;20788;-80
2021/01/06 16:27:32;;;;;;;12.13;9.50;;;5.50;99.90;;;;;;5053747;28;20409;-79
2021/01/06 16:33:20;;;;;;;15.33;10.10;;;5.50;99.90;;;;;;5053464;28;20458;-80
2021/01/06 16:36:06;;;;;;;13.80;9.20;;;5.50;99.90;;;;;;5053855;28;20414;-78
2021/01/06 16:41:57;;;;;;;12.77;9.33;;;5.50;99.90;;;;;;5053446;28;20818;-80
2021/01/06 16:44:35;;;;;;;13.67;10.97;;;5.50;99.90;;;;;;5053359;28;20427;-79
2021/01/06 16:50:27;;;;;;;15.90;10.90;;;5.60;99.90;;;;;;5053239;28;20416;-78
2021/01/06 16:52:55;;;;;;;19.63;13.60;;;5.50;99.90;;;;;;5053460;28;20807;-79
2021/01/06 16:55:26;;;;;;;18.60;12.30;;;5.50;99.90;;;;;;5053069;28;20469;-79
2021/01/06 16:58:08;;;;;;;14.07;10.23;;;5.60;99.90;;;;;;5053203;28;20402;-80
2021/01/06 17:00:43;;;;;;;15.73;10.90;;;5.50;99.90;;;;;;5053025;28;20463;-80
2021/01/06 17:03:24;;;;;;;19.30;15.30;;;5.50;99.90;;;;;;5053433;28;20774;-81
2021/01/06 17:05:57;;;;;;;14.03;11.10;;;5.50;99.90;;;;;;5053169;28;20504;-80
2021/01/06 17:08:24;;;;;;;13.83;10.47;;;5.50;99.90;;;;;;5052787;28;20500;-80
2021/01/06 17:10:50;;;;;;;14.87;11.57;;;5.50;99.90;;;;;;5052951;28;20522;-80
2021/01/06 17:13:18;;;;;;;11.70;8.60;;;5.50;99.90;;;;;;5053077;28;20858;-79
2021/01/06 17:15:47;;;;;;;13.83;9.67;;;5.50;99.90;;;;;;5053139;28;20208;-80
2021/01/06 17:18:35;;;;;;;14.40;10.53;;;5.50;99.90;;;;;;5052778;28;20421;-80
2021/01/06 17:24:29;;;;;;;12.23;9.27;;;5.50;99.90;;;;;;5053271;28;20411;-80
2021/01/06 17:30:24;;;;;;;13.23;9.50;;;5.50;99.90;;;;;;5056886;28;20807;-80
2021/01/06 17:36:12;;;;;;;13.90;8.57;;;5.40;99.90;;;;;;5057067;28;20769;-79
2021/01/06 17:38:46;;;;;;;10.67;8.30;;;5.40;99.90;;;;;;5056787;28;20803;-80
2021/01/06 17:44:33;;;;;;;9.80;7.47;;;5.40;99.90;;;;;;5057684;28;20426;-78
2021/01/06 17:47:00;;;;;;;13.60;8.47;;;5.40;99.90;;;;;;5056988;28;20769;-78
2021/01/06 17:49:27;;;;;;;10.47;7.30;;;5.40;99.90;;;;;;5056825;28;20186;-78
2021/01/06 17:51:53;;;;;;;11.10;7.60;;;5.40;99.90;;;;;;5056658;28;20427;-79
2021/01/06 17:54:21;;;;;;;11.07;7.83;;;5.40;99.90;;;;;;5056388;28;20471;-78
2021/01/06 18:00:14;;;;;;;9.70;6.50;;;5.30;99.90;;;;;;5056382;28;20456;-79
2021/01/06 18:02:40;;;;;;;15.70;7.57;;;5.20;99.90;;;;;;5056444;28;20447;-80
2021/01/06 18:08:29;;;;;;;9.43;8.27;;;5.20;99.90;;;;;;5057109;28;20422;-80
2021/01/06 18:10:57;;;;;;;9.87;7.50;;;5.20;99.90;;;;;;5057496;28;20182;-77
2021/01/06 18:13:27;;;;;;;14.23;8.80;;;5.30;99.90;;;;;;5056750;28;20447;-78
2021/01/06 18:15:53;;;;;;;10.70;7.30;;;5.20;99.90;;;;;;5056150;28;20834;-82
2021/01/06 18:18:20;;;;;;;8.10;6.73;;;5.20;99.90;;;;;;5055978;28;20433;-81
2021/01/06 18:20:46;;;;;;;8.93;6.77;;;5.20;99.90;;;;;;5056290;28;20209;-81
2021/01/06 18:26:34;;;;;;;8.93;6.33;;;5.10;99.90;;;;;;5055956;28;20392;-80
2021/01/06 18:32:26;;;;;;;8.37;6.70;;;5.20;99.90;;;;;;5056263;28;20194;-78
2021/01/06 18:34:55;;;;;;;8.30;6.37;;;5.10;99.90;;;;;;5055575;28;20407;-79
2021/01/06 18:40:44;;;;;;;7.83;6.30;;;5.10;99.90;;;;;;5054500;28;20442;-76
2021/01/06 18:46:37;;;;;;;9.20;6.77;;;5.10;99.90;;;;;;5055653;28;20404;-78
2021/01/06 18:49:12;;;;;;;12.33;6.43;;;5.00;99.90;;;;;;5055788;28;20768;-80
2021/01/06 18:51:45;;;;;;;9.40;6.80;;;5.00;99.90;;;;;;5055450;28;20443;-80
2021/01/06 18:54:21;;;;;;;8.03;5.40;;;5.00;99.90;;;;;;5055250;28;20504;-75
2021/01/06 18:56:48;;;;;;;8.90;7.03;;;5.00;99.90;;;;;;5055667;28;20466;-81
2021/01/06 18:59:33;;;;;;;9.20;6.00;;;5.00;99.90;;;;;;5055318;28;20426;-79
2021/01/06 19:02:00;;;;;;;10.33;6.87;;;5.00;99.90;;;;;;5054795;28;20911;-81
2021/01/06 19:07:59;;;;;;;9.70;6.83;;;5.00;99.90;;;;;;5055078;28;20401;-78
2021/01/06 19:10:30;;;;;;;10.30;7.00;;;4.90;99.90;;;;;;5055156;28;20452;-79
2021/01/06 19:12:58;;;;;;;11.43;7.47;;;4.90;99.90;;;;;;5055275;28;20427;-81
2021/01/06 19:15:26;;;;;;;12.07;7.77;;;5.00;99.90;;;;;;5055342;28;20420;-81
2021/01/06 19:21:17;;;;;;;9.77;5.90;;;5.00;99.90;;;;;;5055202;28;20467;-72
2021/01/06 19:23:43;;;;;;;11.60;7.85;;;5.00;99.90;;;;;;5054642;28;20423;-73
2021/01/06 19:26:19;;;;;;;10.33;7.57;;;5.00;99.90;;;;;;5054693;28;20186;-73
2021/01/06 19:32:10;;;;;;;15.73;7.53;;;4.90;99.90;;;;;;5054853;28;20423;-74
2021/01/06 19:38:09;;;;;;;10.00;7.33;;;4.90;99.90;;;;;;5054833;28;20482;-73
2021/01/06 19:40:37;;;;;;;10.27;7.27;;;4.90;99.90;;;;;;5054552;28;20956;-73
2021/01/06 19:43:11;;;;;;;11.23;7.70;;;4.90;99.90;;;;;;5054974;28;20457;-72
2021/01/06 19:45:38;;;;;;;12.37;8.70;;;4.80;99.90;;;;;;5055080;28;20848;-72
2021/01/06 19:48:05;;;;;;;16.27;8.50;;;4.90;99.90;;;;;;5054745;28;20442;-72
2021/01/06 19:50:48;;;;;;;16.03;7.10;;;4.80;99.90;;;;;;5054201;28;20421;-70
2021/01/06 19:53:17;;;;;;;18.63;9.37;;;4.90;99.90;;;;;;5054703;28;20427;-73
2021/01/06 19:55:46;;;;;;;13.57;7.63;;;4.80;99.90;;;;;;5054439;28;20437;-74
2021/01/06 19:58:16;;;;;;;11.23;7.70;;;4.80;99.90;;;;;;5054479;28;20497;-76
2021/01/06 20:00:41;;;;;;;13.97;7.47;;;4.80;99.90;;;;;;5054486;28;20566;-78
2021/01/06 20:03:07;;;;;;;13.40;7.40;;;4.80;99.90;;;;;;5054450;28;20449;-75
2021/01/06 20:05:32;;;;;;;12.70;8.47;;;4.80;99.90;;;;;;5054489;28;20689;-78
2021/01/06 20:07:58;;;;;;;10.00;7.47;;;4.80;99.90;;;;;;5054190;28;20228;-79
2021/01/06 20:10:24;;;;;;;15.43;8.20;;;4.80;99.90;;;;;;5053378;28;20178;-78